createdAt,value
2018-07-13T00:02:21.871Z,25.30
2018-07-13T00:07:25.034Z,25.30
2018-07-13T00:12:28.822Z,25.40
2018-07-13T00:17:32.065Z,25.30
2018-07-13T00:22:35.471Z,25.30
2018-07-13T00:27:38.842Z,25.30
2018-07-13T00:32:42.087Z,25.30
2018-07-13T00:37:45.432Z,25.30
2018-07-13T00:42:48.811Z,25.30
2018-07-13T00:47:52.091Z,25.30
2018-07-13T00:52:55.453Z,25.30
2018-07-13T00:57:58.664Z,25.30
2018-07-13T01:03:03.425Z,25.30
2018-07-13T01:08:06.607Z,25.40
2018-07-13T01:13:09.839Z,25.40
2018-07-13T01:18:13.310Z,25.40
2018-07-13T01:23:16.565Z,25.30
2018-07-13T01:28:19.750Z,25.30
2018-07-13T01:33:22.959Z,25.40
2018-07-13T01:38:26.223Z,25.40
2018-07-13T01:43:29.600Z,25.30
2018-07-13T01:48:32.790Z,25.30
2018-07-13T01:53:36.065Z,25.30
2018-07-13T01:58:39.336Z,25.30
2018-07-13T02:03:42.540Z,25.30
2018-07-13T02:08:45.819Z,25.40
2018-07-13T02:13:49.278Z,25.30
2018-07-13T02:18:52.464Z,25.30
2018-07-13T02:23:55.613Z,25.30
2018-07-13T02:28:58.921Z,25.30
2018-07-13T02:34:02.199Z,25.30
2018-07-13T02:39:06.439Z,25.30
2018-07-13T02:44:09.669Z,25.30
2018-07-13T02:49:12.884Z,25.30
2018-07-13T02:54:16.243Z,25.30
2018-07-13T02:59:19.420Z,25.30
2018-07-13T03:04:22.851Z,25.30
2018-07-13T03:09:26.174Z,25.40
2018-07-13T03:14:29.363Z,25.40
2018-07-13T03:19:32.754Z,25.40
2018-07-13T03:24:36.061Z,25.40
2018-07-13T03:29:39.263Z,25.40
2018-07-13T03:34:42.629Z,25.40
2018-07-13T03:39:46.025Z,25.40
2018-07-13T03:44:49.241Z,25.40
2018-07-13T03:49:52.611Z,25.40
2018-07-13T03:54:55.855Z,25.50
2018-07-13T03:59:59.124Z,25.40
2018-07-13T04:05:02.282Z,25.40
2018-07-13T04:10:05.483Z,25.50
2018-07-13T04:15:09.349Z,25.50
2018-07-13T04:20:12.664Z,25.60
2018-07-13T04:25:15.929Z,25.60
2018-07-13T04:30:19.231Z,25.70
2018-07-13T04:35:22.567Z,25.70
2018-07-13T04:40:25.791Z,25.70
2018-07-13T04:45:28.936Z,25.80
2018-07-13T04:50:32.401Z,25.80
2018-07-13T04:55:35.649Z,25.80
2018-07-13T05:00:38.926Z,25.70
2018-07-13T05:05:42.827Z,25.80
2018-07-13T05:10:46.063Z,25.80
2018-07-13T05:15:49.232Z,25.80
2018-07-13T05:20:52.420Z,25.70
2018-07-13T05:25:55.921Z,25.70
2018-07-13T05:30:59.099Z,25.70
2018-07-13T05:36:02.414Z,25.70
2018-07-13T05:41:05.755Z,25.70
2018-07-13T05:46:09.686Z,25.70
2018-07-13T05:51:12.965Z,25.70
2018-07-13T05:56:16.579Z,25.80
2018-07-13T06:01:19.870Z,25.80
2018-07-13T06:06:23.379Z,25.80
2018-07-13T06:11:28.343Z,25.90
2018-07-13T06:16:31.594Z,25.90
2018-07-13T06:21:34.841Z,26.10
2018-07-13T06:26:38.129Z,26.10
2018-07-13T06:31:41.381Z,26.00
2018-07-13T06:36:44.725Z,26.00
2018-07-13T06:41:47.945Z,26.00
2018-07-13T06:46:51.195Z,25.90
2018-07-13T06:51:54.593Z,25.90
2018-07-13T06:56:57.806Z,25.90
2018-07-13T07:02:01.153Z,26.00
2018-07-13T07:07:10.207Z,26.10
2018-07-13T07:12:50.824Z,26.10
2018-07-13T07:17:54.941Z,26.10
2018-07-13T07:22:58.156Z,26.10
2018-07-13T07:28:01.438Z,26.00
2018-07-13T07:33:04.748Z,26.00
2018-07-13T07:38:07.999Z,26.00
2018-07-13T07:43:11.201Z,26.00
2018-07-13T07:48:14.392Z,25.90
2018-07-13T07:53:17.701Z,25.90
2018-07-13T07:58:21.174Z,25.90
2018-07-13T08:03:24.431Z,25.90
2018-07-13T08:08:27.883Z,25.90
2018-07-13T08:13:31.164Z,25.90
2018-07-13T08:18:34.655Z,25.90
2018-07-13T08:23:37.892Z,25.90
2018-07-13T08:28:42.316Z,25.90
2018-07-13T08:33:45.489Z,25.90
2018-07-13T08:38:48.679Z,25.80
2018-07-13T08:43:52.089Z,25.80
2018-07-13T08:48:55.521Z,25.90
2018-07-13T08:53:59.045Z,25.90
2018-07-13T08:59:02.375Z,25.90
2018-07-13T09:04:05.654Z,25.80
2018-07-13T09:09:14.268Z,25.90
2018-07-13T09:14:17.467Z,25.90
2018-07-13T09:19:20.713Z,25.90
2018-07-13T09:24:23.970Z,25.90
2018-07-13T09:29:27.338Z,25.90
2018-07-13T09:34:30.552Z,25.90
2018-07-13T09:39:33.954Z,26.00
2018-07-13T09:44:38.219Z,26.00
2018-07-13T09:49:41.449Z,26.00
2018-07-13T09:54:44.659Z,26.00
2018-07-13T09:59:47.893Z,26.00
2018-07-13T10:04:51.616Z,25.90
2018-07-13T10:09:54.850Z,25.90
2018-07-13T10:14:58.091Z,25.90
2018-07-13T10:20:01.278Z,25.90
2018-07-13T10:25:04.961Z,25.90
2018-07-13T10:30:11.098Z,25.90
2018-07-13T10:35:14.338Z,25.90
2018-07-13T10:40:17.660Z,25.90
2018-07-13T10:45:20.876Z,25.90
2018-07-13T10:50:24.198Z,25.90
2018-07-13T10:55:27.450Z,26.00
2018-07-13T11:00:30.907Z,26.00
2018-07-13T11:05:34.372Z,26.00
2018-07-13T11:10:37.578Z,25.90
2018-07-13T11:15:40.774Z,25.90
2018-07-13T11:20:44.097Z,26.00
2018-07-13T11:25:47.340Z,25.90
2018-07-13T11:30:50.550Z,25.90
2018-07-13T11:35:54.641Z,25.90
2018-07-13T11:40:57.982Z,25.90
2018-07-13T11:46:01.445Z,25.90
2018-07-13T11:51:04.790Z,25.90
2018-07-13T11:56:08.024Z,25.90
2018-07-13T12:01:15.207Z,25.90
2018-07-13T12:06:18.524Z,25.90
2018-07-13T12:11:21.820Z,25.90
2018-07-13T12:16:25.119Z,26.00
2018-07-13T12:21:28.330Z,25.90
2018-07-13T12:26:31.710Z,25.90
2018-07-13T12:31:35.025Z,25.90
2018-07-13T12:36:38.383Z,26.00
2018-07-13T12:41:41.807Z,25.90
2018-07-13T12:46:45.237Z,25.90
2018-07-13T12:51:48.457Z,25.90
2018-07-13T12:56:51.799Z,25.90
2018-07-13T13:01:55.358Z,25.90
2018-07-13T13:06:58.830Z,25.90
2018-07-13T13:12:01.996Z,25.90
2018-07-13T13:17:05.327Z,25.90
2018-07-13T13:22:08.571Z,25.90
2018-07-13T13:27:11.760Z,25.90
2018-07-13T13:32:15.114Z,25.90
2018-07-13T13:37:19.186Z,25.90
2018-07-13T13:42:22.793Z,25.90
2018-07-13T13:47:26.033Z,25.90
2018-07-13T13:52:29.494Z,25.90
2018-07-13T13:57:32.713Z,25.90
2018-07-13T14:02:36.454Z,25.90
2018-07-13T14:07:39.627Z,25.90
2018-07-13T14:12:42.839Z,25.90
2018-07-13T14:17:46.057Z,25.90
2018-07-13T14:22:49.272Z,25.90
2018-07-13T14:27:52.902Z,25.90
2018-07-13T14:32:56.205Z,25.90
2018-07-13T14:38:01.919Z,25.90
2018-07-13T14:43:05.237Z,25.90
2018-07-13T14:48:08.707Z,25.90
2018-07-13T14:53:13.255Z,25.90
2018-07-13T14:58:16.729Z,25.90
2018-07-13T15:03:20.093Z,25.90
2018-07-13T15:08:23.480Z,25.90
2018-07-13T15:13:26.714Z,25.90
2018-07-13T15:18:29.988Z,25.90
2018-07-13T15:23:33.199Z,25.90
2018-07-13T15:28:36.408Z,25.90
2018-07-13T15:33:42.593Z,25.90
2018-07-13T15:38:45.871Z,25.90
2018-07-13T15:43:49.885Z,25.90
2018-07-13T15:48:53.127Z,25.90
2018-07-13T15:53:56.372Z,25.90
2018-07-13T15:58:59.665Z,26.00
2018-07-13T16:04:02.897Z,25.90
2018-07-13T16:09:06.320Z,25.90
2018-07-13T16:14:10.322Z,25.90
2018-07-13T16:19:13.642Z,25.90
2018-07-13T16:24:16.828Z,25.90
2018-07-13T16:29:20.072Z,25.80
2018-07-13T16:34:23.953Z,25.80
2018-07-13T16:39:27.440Z,25.80
2018-07-13T16:44:30.884Z,25.80
2018-07-13T16:49:34.286Z,25.80
2018-07-13T16:54:37.540Z,25.80
2018-07-13T16:59:40.738Z,25.80
2018-07-13T17:04:44.506Z,25.80
2018-07-13T17:09:48.043Z,25.80
2018-07-13T17:14:51.458Z,25.80
2018-07-13T17:19:54.891Z,25.80
2018-07-13T17:24:58.092Z,25.80
2018-07-13T17:30:01.358Z,25.80
2018-07-13T17:35:04.688Z,25.80
2018-07-13T17:40:07.942Z,25.70
2018-07-13T17:45:11.167Z,25.80
2018-07-13T17:50:14.466Z,25.70
2018-07-13T17:55:17.644Z,25.70
2018-07-13T18:00:20.947Z,25.80
2018-07-13T18:05:24.177Z,25.80
2018-07-13T18:10:27.505Z,25.80
2018-07-13T18:15:30.786Z,25.80
2018-07-13T18:20:34.019Z,25.80
2018-07-13T18:25:37.453Z,25.80
2018-07-13T18:30:40.771Z,25.70
2018-07-13T18:35:44.036Z,25.70
2018-07-13T18:40:47.459Z,25.70
2018-07-13T18:45:50.707Z,25.70
2018-07-13T18:50:53.916Z,25.70
2018-07-13T18:55:57.149Z,25.70
2018-07-13T19:01:00.442Z,25.70
2018-07-13T19:06:03.852Z,25.60
2018-07-13T19:11:07.301Z,25.60
2018-07-13T19:16:10.582Z,25.60
2018-07-13T19:21:15.487Z,25.60
2018-07-13T19:26:18.737Z,25.60
2018-07-13T19:31:22.006Z,25.60
2018-07-13T19:36:25.300Z,25.60
2018-07-13T19:41:29.402Z,25.60
2018-07-13T19:46:32.804Z,25.60
2018-07-13T19:51:36.080Z,25.60
2018-07-13T19:56:39.428Z,25.60
2018-07-13T20:01:42.667Z,25.60
2018-07-13T20:06:45.905Z,25.50
2018-07-13T20:11:49.166Z,25.60
2018-07-13T20:16:52.514Z,25.60
2018-07-13T20:21:55.799Z,25.50
2018-07-13T20:26:59.067Z,25.70
2018-07-13T20:32:02.415Z,25.50
2018-07-13T20:37:06.119Z,25.70
2018-07-13T20:42:09.475Z,25.70
2018-07-13T20:47:13.221Z,25.40
2018-07-13T20:52:16.577Z,25.50
2018-07-13T20:57:20.036Z,25.40
2018-07-13T21:02:23.381Z,25.40
2018-07-13T21:07:27.696Z,25.50
2018-07-13T21:12:32.080Z,25.30
2018-07-13T21:17:35.384Z,25.30
2018-07-13T21:22:38.685Z,25.30
2018-07-13T21:27:41.881Z,25.30
2018-07-13T21:32:45.101Z,25.30
2018-07-13T21:37:48.484Z,25.30
2018-07-13T21:42:51.802Z,25.20
2018-07-13T21:47:55.144Z,25.30
2018-07-13T21:52:58.467Z,25.20
2018-07-13T21:58:02.714Z,25.20
2018-07-13T22:03:06.152Z,25.20
2018-07-13T22:08:09.469Z,25.00
2018-07-13T22:13:12.778Z,25.10
2018-07-13T22:18:17.067Z,25.20
2018-07-13T22:23:20.368Z,25.30
2018-07-13T22:28:23.533Z,25.30
2018-07-13T22:33:26.788Z,25.40
2018-07-13T22:38:30.060Z,25.40
2018-07-13T22:43:33.241Z,25.40
2018-07-13T22:48:36.403Z,25.40
2018-07-13T22:53:39.751Z,25.50
2018-07-13T22:58:42.955Z,25.50
2018-07-13T23:03:46.143Z,25.40
2018-07-13T23:08:49.500Z,25.50
2018-07-13T23:13:52.784Z,25.50
2018-07-13T23:18:56.372Z,25.40
2018-07-13T23:23:59.582Z,25.50
2018-07-13T23:29:02.761Z,25.50
2018-07-13T23:34:05.948Z,25.50
2018-07-13T23:39:09.133Z,25.50
2018-07-13T23:44:12.395Z,25.50
2018-07-13T23:49:15.632Z,25.50
2018-07-13T23:54:18.802Z,25.50
2018-07-13T23:59:21.942Z,25.50
